sensor_id;sensor_type;location;lat;lon;timestamp;P1;durP1;ratioP1;P2;durP2;ratioP2
69551;SDS011;63774;45.292;11.784;2024-02-26T00:01:37;7.20;;;4.50;;
69551;SDS011;63774;45.292;11.784;2024-02-26T00:04:02;6.80;;;4.60;;
69551;SDS011;63774;45.292;11.784;2024-02-26T00:06:28;7.10;;;4.80;;
69551;SDS011;63774;45.292;11.784;2024-02-26T00:08:55;7.00;;;4.90;;
69551;SDS011;63774;45.292;11.784;2024-02-26T00:11:20;7.30;;;4.50;;
69551;SDS011;63774;45.292;11.784;2024-02-26T00:13:45;7.50;;;4.60;;
69551;SDS011;63774;45.292;11.784;2024-02-26T00:16:11;6.70;;;4.60;;
69551;SDS011;63774;45.292;11.784;2024-02-26T00:18:36;7.20;;;4.80;;
69551;SDS011;63774;45.292;11.784;2024-02-26T00:21:02;6.90;;;4.90;;
69551;SDS011;63774;45.292;11.784;2024-02-26T00:23:27;6.60;;;4.50;;
69551;SDS011;63774;45.292;11.784;2024-02-26T00:25:53;6.70;;;4.60;;
69551;SDS011;63774;45.292;11.784;2024-02-26T00:28:20;6.90;;;4.70;;
69551;SDS011;63774;45.292;11.784;2024-02-26T00:30:46;8.20;;;4.70;;
69551;SDS011;63774;45.292;11.784;2024-02-26T00:33:12;6.80;;;4.80;;
69551;SDS011;63774;45.292;11.784;2024-02-26T00:35:37;7.70;;;5.00;;
69551;SDS011;63774;45.292;11.784;2024-02-26T00:38:03;8.90;;;5.30;;
69551;SDS011;63774;45.292;11.784;2024-02-26T00:40:29;7.60;;;5.10;;
69551;SDS011;63774;45.292;11.784;2024-02-26T00:42:54;7.30;;;4.90;;
69551;SDS011;63774;45.292;11.784;2024-02-26T00:45:20;8.00;;;5.30;;
69551;SDS011;63774;45.292;11.784;2024-02-26T00:47:45;7.60;;;5.10;;
69551;SDS011;63774;45.292;11.784;2024-02-26T00:50:12;7.40;;;5.20;;
69551;SDS011;63774;45.292;11.784;2024-02-26T00:52:38;7.70;;;5.20;;
69551;SDS011;63774;45.292;11.784;2024-02-26T00:55:03;7.40;;;4.90;;
69551;SDS011;63774;45.292;11.784;2024-02-26T00:57:29;7.30;;;4.70;;
69551;SDS011;63774;45.292;11.784;2024-02-26T00:59:55;9.70;;;5.20;;
69551;SDS011;63774;45.292;11.784;2024-02-26T01:02:21;6.80;;;5.10;;
69551;SDS011;63774;45.292;11.784;2024-02-26T01:04:47;7.30;;;4.80;;
69551;SDS011;63774;45.292;11.784;2024-02-26T01:07:13;6.80;;;4.90;;
69551;SDS011;63774;45.292;11.784;2024-02-26T01:09:38;7.30;;;5.40;;
69551;SDS011;63774;45.292;11.784;2024-02-26T01:12:04;7.90;;;5.10;;
69551;SDS011;63774;45.292;11.784;2024-02-26T01:14:29;8.30;;;5.30;;
69551;SDS011;63774;45.292;11.784;2024-02-26T01:16:55;7.70;;;5.10;;
69551;SDS011;63774;45.292;11.784;2024-02-26T01:19:20;7.40;;;5.20;;
69551;SDS011;63774;45.292;11.784;2024-02-26T01:21:46;8.70;;;5.10;;
69551;SDS011;63774;45.292;11.784;2024-02-26T01:24:11;6.70;;;4.80;;
69551;SDS011;63774;45.292;11.784;2024-02-26T01:26:37;9.90;;;5.60;;
69551;SDS011;63774;45.292;11.784;2024-02-26T01:29:03;9.20;;;5.30;;
69551;SDS011;63774;45.292;11.784;2024-02-26T01:31:28;6.80;;;5.10;;
69551;SDS011;63774;45.292;11.784;2024-02-26T01:33:54;7.60;;;5.60;;
69551;SDS011;63774;45.292;11.784;2024-02-26T01:36:19;7.10;;;5.00;;
69551;SDS011;63774;45.292;11.784;2024-02-26T01:38:46;8.10;;;5.30;;
69551;SDS011;63774;45.292;11.784;2024-02-26T01:41:13;7.00;;;5.10;;
69551;SDS011;63774;45.292;11.784;2024-02-26T01:43:39;7.00;;;5.10;;
69551;SDS011;63774;45.292;11.784;2024-02-26T01:46:04;7.60;;;5.30;;
69551;SDS011;63774;45.292;11.784;2024-02-26T01:48:30;6.70;;;4.80;;
69551;SDS011;63774;45.292;11.784;2024-02-26T01:50:55;7.00;;;5.30;;
69551;SDS011;63774;45.292;11.784;2024-02-26T01:53:21;7.40;;;5.10;;
69551;SDS011;63774;45.292;11.784;2024-02-26T01:55:47;7.40;;;5.00;;
69551;SDS011;63774;45.292;11.784;2024-02-26T01:58:13;7.00;;;4.80;;
69551;SDS011;63774;45.292;11.784;2024-02-26T02:00:39;6.30;;;4.90;;
69551;SDS011;63774;45.292;11.784;2024-02-26T02:03:04;6.60;;;4.90;;
69551;SDS011;63774;45.292;11.784;2024-02-26T02:05:30;6.20;;;4.70;;
69551;SDS011;63774;45.292;11.784;2024-02-26T02:07:56;6.40;;;4.80;;
69551;SDS011;63774;45.292;11.784;2024-02-26T02:10:22;6.90;;;4.90;;
69551;SDS011;63774;45.292;11.784;2024-02-26T02:12:50;7.80;;;5.10;;
69551;SDS011;63774;45.292;11.784;2024-02-26T02:15:16;6.90;;;5.00;;
69551;SDS011;63774;45.292;11.784;2024-02-26T02:17:42;6.30;;;4.80;;
69551;SDS011;63774;45.292;11.784;2024-02-26T02:20:08;7.00;;;4.80;;
69551;SDS011;63774;45.292;11.784;2024-02-26T02:22:46;7.70;;;5.10;;
69551;SDS011;63774;45.292;11.784;2024-02-26T02:25:12;6.50;;;4.80;;
69551;SDS011;63774;45.292;11.784;2024-02-26T02:27:38;7.30;;;4.90;;
69551;SDS011;63774;45.292;11.784;2024-02-26T02:30:04;6.20;;;4.70;;
69551;SDS011;63774;45.292;11.784;2024-02-26T02:32:31;6.40;;;4.60;;
69551;SDS011;63774;45.292;11.784;2024-02-26T02:34:57;6.10;;;4.70;;
69551;SDS011;63774;45.292;11.784;2024-02-26T02:37:23;6.30;;;4.80;;
69551;SDS011;63774;45.292;11.784;2024-02-26T02:39:48;5.90;;;4.50;;
69551;SDS011;63774;45.292;11.784;2024-02-26T02:42:14;5.80;;;4.30;;
69551;SDS011;63774;45.292;11.784;2024-02-26T02:44:39;7.10;;;4.70;;
69551;SDS011;63774;45.292;11.784;2024-02-26T02:47:05;8.50;;;5.10;;
69551;SDS011;63774;45.292;11.784;2024-02-26T02:49:30;7.20;;;5.10;;
69551;SDS011;63774;45.292;11.784;2024-02-26T02:51:56;7.40;;;5.00;;
69551;SDS011;63774;45.292;11.784;2024-02-26T02:54:22;6.30;;;4.60;;
69551;SDS011;63774;45.292;11.784;2024-02-26T02:56:48;6.20;;;4.70;;
69551;SDS011;63774;45.292;11.784;2024-02-26T02:59:14;7.10;;;5.00;;
69551;SDS011;63774;45.292;11.784;2024-02-26T03:01:39;7.80;;;5.20;;
69551;SDS011;63774;45.292;11.784;2024-02-26T03:04:05;7.50;;;5.00;;
69551;SDS011;63774;45.292;11.784;2024-02-26T03:06:30;7.00;;;4.80;;
69551;SDS011;63774;45.292;11.784;2024-02-26T03:08:55;7.00;;;4.70;;
69551;SDS011;63774;45.292;11.784;2024-02-26T03:11:21;7.20;;;4.80;;
69551;SDS011;63774;45.292;11.784;2024-02-26T03:13:47;8.20;;;4.60;;
69551;SDS011;63774;45.292;11.784;2024-02-26T03:16:12;7.80;;;4.90;;
69551;SDS011;63774;45.292;11.784;2024-02-26T03:18:41;6.50;;;4.40;;
69551;SDS011;63774;45.292;11.784;2024-02-26T03:21:06;6.20;;;4.50;;
69551;SDS011;63774;45.292;11.784;2024-02-26T03:23:32;9.30;;;5.20;;
69551;SDS011;63774;45.292;11.784;2024-02-26T03:26:01;6.40;;;4.80;;
69551;SDS011;63774;45.292;11.784;2024-02-26T03:28:30;6.70;;;4.60;;
69551;SDS011;63774;45.292;11.784;2024-02-26T03:30:58;8.80;;;5.20;;
69551;SDS011;63774;45.292;11.784;2024-02-26T03:33:24;6.70;;;4.70;;
69551;SDS011;63774;45.292;11.784;2024-02-26T03:35:49;7.40;;;5.10;;
69551;SDS011;63774;45.292;11.784;2024-02-26T03:38:15;6.80;;;4.60;;
69551;SDS011;63774;45.292;11.784;2024-02-26T03:40:40;6.30;;;4.80;;
69551;SDS011;63774;45.292;11.784;2024-02-26T03:43:06;6.40;;;4.30;;
69551;SDS011;63774;45.292;11.784;2024-02-26T03:45:32;5.80;;;4.50;;
69551;SDS011;63774;45.292;11.784;2024-02-26T03:47:58;6.50;;;4.50;;
69551;SDS011;63774;45.292;11.784;2024-02-26T03:50:24;6.40;;;4.80;;
69551;SDS011;63774;45.292;11.784;2024-02-26T03:52:50;6.10;;;4.60;;
69551;SDS011;63774;45.292;11.784;2024-02-26T03:55:15;7.00;;;4.30;;
69551;SDS011;63774;45.292;11.784;2024-02-26T03:57:43;6.70;;;4.80;;
69551;SDS011;63774;45.292;11.784;2024-02-26T04:00:08;6.20;;;4.40;;
69551;SDS011;63774;45.292;11.784;2024-02-26T04:02:34;5.90;;;4.10;;
69551;SDS011;63774;45.292;11.784;2024-02-26T04:05:00;4.90;;;4.10;;
69551;SDS011;63774;45.292;11.784;2024-02-26T04:07:25;5.90;;;4.60;;
69551;SDS011;63774;45.292;11.784;2024-02-26T04:09:51;6.40;;;4.70;;
69551;SDS011;63774;45.292;11.784;2024-02-26T04:12:16;7.30;;;4.60;;
69551;SDS011;63774;45.292;11.784;2024-02-26T04:14:42;5.80;;;4.50;;
69551;SDS011;63774;45.292;11.784;2024-02-26T04:17:07;6.70;;;4.60;;
69551;SDS011;63774;45.292;11.784;2024-02-26T04:19:33;5.70;;;4.30;;
69551;SDS011;63774;45.292;11.784;2024-02-26T04:21:59;6.20;;;4.50;;
69551;SDS011;63774;45.292;11.784;2024-02-26T04:24:24;6.60;;;4.90;;
69551;SDS011;63774;45.292;11.784;2024-02-26T04:26:50;6.10;;;4.60;;
69551;SDS011;63774;45.292;11.784;2024-02-26T04:29:15;6.10;;;4.50;;
69551;SDS011;63774;45.292;11.784;2024-02-26T04:31:41;5.60;;;4.40;;
69551;SDS011;63774;45.292;11.784;2024-02-26T04:34:08;7.40;;;4.70;;
69551;SDS011;63774;45.292;11.784;2024-02-26T04:36:33;5.70;;;4.40;;
69551;SDS011;63774;45.292;11.784;2024-02-26T04:38:59;6.00;;;4.20;;
69551;SDS011;63774;45.292;11.784;2024-02-26T04:41:24;6.00;;;4.50;;
69551;SDS011;63774;45.292;11.784;2024-02-26T04:43:50;5.60;;;4.40;;
69551;SDS011;63774;45.292;11.784;2024-02-26T04:46:15;5.60;;;4.30;;
69551;SDS011;63774;45.292;11.784;2024-02-26T04:48:40;6.50;;;4.90;;
69551;SDS011;63774;45.292;11.784;2024-02-26T04:51:07;6.30;;;4.50;;
69551;SDS011;63774;45.292;11.784;2024-02-26T04:53:32;5.20;;;4.00;;
69551;SDS011;63774;45.292;11.784;2024-02-26T04:55:58;5.80;;;4.20;;
69551;SDS011;63774;45.292;11.784;2024-02-26T04:58:23;5.40;;;4.00;;
69551;SDS011;63774;45.292;11.784;2024-02-26T05:00:49;5.60;;;4.10;;
69551;SDS011;63774;45.292;11.784;2024-02-26T05:03:14;5.60;;;4.20;;
69551;SDS011;63774;45.292;11.784;2024-02-26T05:05:41;5.90;;;4.10;;
69551;SDS011;63774;45.292;11.784;2024-02-26T05:08:09;6.30;;;4.60;;
69551;SDS011;63774;45.292;11.784;2024-02-26T05:10:34;6.10;;;4.20;;
69551;SDS011;63774;45.292;11.784;2024-02-26T05:13:04;5.40;;;4.20;;
69551;SDS011;63774;45.292;11.784;2024-02-26T05:15:30;5.70;;;4.20;;
69551;SDS011;63774;45.292;11.784;2024-02-26T05:17:56;5.80;;;4.10;;
69551;SDS011;63774;45.292;11.784;2024-02-26T05:20:21;5.80;;;4.10;;
69551;SDS011;63774;45.292;11.784;2024-02-26T05:22:46;6.00;;;4.20;;
69551;SDS011;63774;45.292;11.784;2024-02-26T05:25:14;7.30;;;4.40;;
69551;SDS011;63774;45.292;11.784;2024-02-26T05:27:40;5.60;;;4.30;;
69551;SDS011;63774;45.292;11.784;2024-02-26T05:30:06;6.20;;;4.40;;
69551;SDS011;63774;45.292;11.784;2024-02-26T05:32:32;5.30;;;4.10;;
69551;SDS011;63774;45.292;11.784;2024-02-26T05:34:58;6.00;;;4.00;;
69551;SDS011;63774;45.292;11.784;2024-02-26T05:37:23;5.40;;;4.00;;
69551;SDS011;63774;45.292;11.784;2024-02-26T05:39:49;5.60;;;4.00;;
69551;SDS011;63774;45.292;11.784;2024-02-26T05:42:14;5.80;;;4.10;;
69551;SDS011;63774;45.292;11.784;2024-02-26T05:44:39;5.60;;;4.10;;
69551;SDS011;63774;45.292;11.784;2024-02-26T05:47:05;5.90;;;4.10;;
69551;SDS011;63774;45.292;11.784;2024-02-26T05:49:30;5.80;;;4.20;;
69551;SDS011;63774;45.292;11.784;2024-02-26T05:51:56;5.00;;;4.00;;
69551;SDS011;63774;45.292;11.784;2024-02-26T05:54:21;5.50;;;3.70;;
69551;SDS011;63774;45.292;11.784;2024-02-26T05:56:47;5.80;;;4.30;;
69551;SDS011;63774;45.292;11.784;2024-02-26T05:59:12;5.60;;;4.20;;
69551;SDS011;63774;45.292;11.784;2024-02-26T06:01:40;5.20;;;3.90;;
69551;SDS011;63774;45.292;11.784;2024-02-26T06:04:06;5.20;;;3.90;;
69551;SDS011;63774;45.292;11.784;2024-02-26T06:06:31;5.10;;;3.90;;
69551;SDS011;63774;45.292;11.784;2024-02-26T06:08:57;5.10;;;3.60;;
69551;SDS011;63774;45.292;11.784;2024-02-26T06:11:22;5.30;;;4.00;;
69551;SDS011;63774;45.292;11.784;2024-02-26T06:13:48;5.70;;;4.10;;
69551;SDS011;63774;45.292;11.784;2024-02-26T06:16:13;6.10;;;4.10;;
69551;SDS011;63774;45.292;11.784;2024-02-26T06:18:39;5.70;;;3.80;;
69551;SDS011;63774;45.292;11.784;2024-02-26T06:21:04;7.10;;;4.20;;
69551;SDS011;63774;45.292;11.784;2024-02-26T06:23:34;6.60;;;4.20;;
69551;SDS011;63774;45.292;11.784;2024-02-26T06:25:59;5.40;;;3.90;;
69551;SDS011;63774;45.292;11.784;2024-02-26T06:28:24;5.10;;;4.00;;
69551;SDS011;63774;45.292;11.784;2024-02-26T06:30:50;5.50;;;4.00;;
69551;SDS011;63774;45.292;11.784;2024-02-26T06:33:17;4.70;;;3.80;;
69551;SDS011;63774;45.292;11.784;2024-02-26T06:35:43;4.80;;;3.70;;
69551;SDS011;63774;45.292;11.784;2024-02-26T06:38:09;5.40;;;3.70;;
69551;SDS011;63774;45.292;11.784;2024-02-26T06:40:36;5.60;;;4.20;;
69551;SDS011;63774;45.292;11.784;2024-02-26T06:43:02;5.60;;;4.10;;
69551;SDS011;63774;45.292;11.784;2024-02-26T06:45:27;5.70;;;4.00;;
69551;SDS011;63774;45.292;11.784;2024-02-26T06:47:53;6.10;;;4.00;;
69551;SDS011;63774;45.292;11.784;2024-02-26T06:50:18;5.80;;;4.10;;
69551;SDS011;63774;45.292;11.784;2024-02-26T06:52:44;4.70;;;3.80;;
69551;SDS011;63774;45.292;11.784;2024-02-26T06:55:11;5.00;;;3.70;;
69551;SDS011;63774;45.292;11.784;2024-02-26T06:57:36;4.90;;;3.70;;
69551;SDS011;63774;45.292;11.784;2024-02-26T07:00:02;6.00;;;4.10;;
69551;SDS011;63774;45.292;11.784;2024-02-26T07:02:29;5.40;;;3.90;;
69551;SDS011;63774;45.292;11.784;2024-02-26T07:04:54;5.30;;;4.10;;
69551;SDS011;63774;45.292;11.784;2024-02-26T07:07:21;5.60;;;4.10;;
69551;SDS011;63774;45.292;11.784;2024-02-26T07:09:48;5.80;;;3.90;;
69551;SDS011;63774;45.292;11.784;2024-02-26T07:12:14;5.30;;;3.90;;
69551;SDS011;63774;45.292;11.784;2024-02-26T07:14:41;6.30;;;3.90;;
69551;SDS011;63774;45.292;11.784;2024-02-26T07:17:06;5.50;;;4.00;;
69551;SDS011;63774;45.292;11.784;2024-02-26T07:19:33;5.50;;;3.90;;
69551;SDS011;63774;45.292;11.784;2024-02-26T07:21:59;5.10;;;3.80;;
69551;SDS011;63774;45.292;11.784;2024-02-26T07:24:26;5.90;;;3.90;;
69551;SDS011;63774;45.292;11.784;2024-02-26T07:26:52;5.70;;;3.90;;
69551;SDS011;63774;45.292;11.784;2024-02-26T07:29:20;5.50;;;4.20;;
69551;SDS011;63774;45.292;11.784;2024-02-26T07:31:46;5.20;;;4.00;;
69551;SDS011;63774;45.292;11.784;2024-02-26T07:34:12;5.60;;;4.10;;
69551;SDS011;63774;45.292;11.784;2024-02-26T07:36:38;5.30;;;3.80;;
69551;SDS011;63774;45.292;11.784;2024-02-26T07:39:04;5.20;;;3.70;;
69551;SDS011;63774;45.292;11.784;2024-02-26T07:41:30;5.60;;;3.90;;
69551;SDS011;63774;45.292;11.784;2024-02-26T07:43:55;5.00;;;3.90;;
69551;SDS011;63774;45.292;11.784;2024-02-26T07:46:20;4.50;;;3.60;;
69551;SDS011;63774;45.292;11.784;2024-02-26T07:48:46;5.90;;;3.90;;
69551;SDS011;63774;45.292;11.784;2024-02-26T07:51:12;4.70;;;3.70;;
69551;SDS011;63774;45.292;11.784;2024-02-26T07:53:39;5.50;;;3.70;;
69551;SDS011;63774;45.292;11.784;2024-02-26T07:56:04;4.90;;;3.80;;
69551;SDS011;63774;45.292;11.784;2024-02-26T07:58:30;5.90;;;4.00;;
69551;SDS011;63774;45.292;11.784;2024-02-26T08:00:55;5.50;;;4.00;;
69551;SDS011;63774;45.292;11.784;2024-02-26T08:03:20;5.40;;;3.90;;
69551;SDS011;63774;45.292;11.784;2024-02-26T08:05:46;5.30;;;3.70;;
69551;SDS011;63774;45.292;11.784;2024-02-26T08:08:11;5.80;;;3.80;;
69551;SDS011;63774;45.292;11.784;2024-02-26T08:10:37;5.00;;;3.80;;
69551;SDS011;63774;45.292;11.784;2024-02-26T08:13:03;5.70;;;3.90;;
69551;SDS011;63774;45.292;11.784;2024-02-26T08:15:32;5.20;;;3.90;;
69551;SDS011;63774;45.292;11.784;2024-02-26T08:17:59;5.40;;;4.10;;
69551;SDS011;63774;45.292;11.784;2024-02-26T08:20:27;5.10;;;3.80;;
69551;SDS011;63774;45.292;11.784;2024-02-26T08:22:53;5.20;;;3.60;;
69551;SDS011;63774;45.292;11.784;2024-02-26T08:25:19;5.60;;;4.00;;
69551;SDS011;63774;45.292;11.784;2024-02-26T08:27:44;5.50;;;4.00;;
69551;SDS011;63774;45.292;11.784;2024-02-26T08:30:10;5.20;;;3.80;;
69551;SDS011;63774;45.292;11.784;2024-02-26T08:32:38;5.00;;;3.80;;
69551;SDS011;63774;45.292;11.784;2024-02-26T08:35:04;5.60;;;3.70;;
69551;SDS011;63774;45.292;11.784;2024-02-26T08:37:30;5.60;;;4.20;;
69551;SDS011;63774;45.292;11.784;2024-02-26T08:39:55;5.20;;;4.10;;
69551;SDS011;63774;45.292;11.784;2024-02-26T08:42:20;5.30;;;3.70;;
69551;SDS011;63774;45.292;11.784;2024-02-26T08:44:46;5.20;;;4.00;;
69551;SDS011;63774;45.292;11.784;2024-02-26T08:47:11;4.50;;;3.80;;
69551;SDS011;63774;45.292;11.784;2024-02-26T08:49:41;6.00;;;3.90;;
69551;SDS011;63774;45.292;11.784;2024-02-26T08:52:07;5.70;;;3.90;;
69551;SDS011;63774;45.292;11.784;2024-02-26T08:54:33;5.10;;;3.80;;
69551;SDS011;63774;45.292;11.784;2024-02-26T08:56:58;5.60;;;3.90;;
69551;SDS011;63774;45.292;11.784;2024-02-26T08:59:23;6.20;;;3.80;;
69551;SDS011;63774;45.292;11.784;2024-02-26T09:01:49;5.10;;;3.70;;
69551;SDS011;63774;45.292;11.784;2024-02-26T09:04:14;5.10;;;3.50;;
69551;SDS011;63774;45.292;11.784;2024-02-26T09:06:40;7.00;;;3.90;;
69551;SDS011;63774;45.292;11.784;2024-02-26T09:09:05;5.60;;;4.00;;
69551;SDS011;63774;45.292;11.784;2024-02-26T09:11:31;5.50;;;3.60;;
69551;SDS011;63774;45.292;11.784;2024-02-26T09:13:56;5.10;;;3.90;;
69551;SDS011;63774;45.292;11.784;2024-02-26T09:16:22;6.20;;;3.90;;
69551;SDS011;63774;45.292;11.784;2024-02-26T09:18:47;5.20;;;3.70;;
69551;SDS011;63774;45.292;11.784;2024-02-26T09:21:13;5.00;;;3.40;;
69551;SDS011;63774;45.292;11.784;2024-02-26T09:23:38;5.20;;;3.80;;
69551;SDS011;63774;45.292;11.784;2024-02-26T09:26:05;5.30;;;3.50;;
69551;SDS011;63774;45.292;11.784;2024-02-26T09:28:31;6.00;;;3.60;;
69551;SDS011;63774;45.292;11.784;2024-02-26T09:31:02;5.10;;;3.90;;
69551;SDS011;63774;45.292;11.784;2024-02-26T09:33:29;5.10;;;3.70;;
69551;SDS011;63774;45.292;11.784;2024-02-26T09:35:54;4.80;;;3.50;;
69551;SDS011;63774;45.292;11.784;2024-02-26T09:38:20;4.90;;;3.60;;
69551;SDS011;63774;45.292;11.784;2024-02-26T09:40:45;4.50;;;3.40;;
69551;SDS011;63774;45.292;11.784;2024-02-26T09:43:11;6.30;;;3.60;;
69551;SDS011;63774;45.292;11.784;2024-02-26T09:45:40;7.50;;;3.90;;
69551;SDS011;63774;45.292;11.784;2024-02-26T09:48:08;7.40;;;3.60;;
69551;SDS011;63774;45.292;11.784;2024-02-26T09:50:35;5.50;;;3.40;;
69551;SDS011;63774;45.292;11.784;2024-02-26T09:53:02;6.00;;;3.30;;
69551;SDS011;63774;45.292;11.784;2024-02-26T09:55:30;5.10;;;3.60;;
69551;SDS011;63774;45.292;11.784;2024-02-26T09:57:55;5.20;;;3.20;;
69551;SDS011;63774;45.292;11.784;2024-02-26T10:00:22;6.20;;;3.60;;
69551;SDS011;63774;45.292;11.784;2024-02-26T10:02:50;4.30;;;3.20;;
69551;SDS011;63774;45.292;11.784;2024-02-26T10:05:17;7.80;;;3.40;;
69551;SDS011;63774;45.292;11.784;2024-02-26T10:07:44;5.20;;;3.70;;
69551;SDS011;63774;45.292;11.784;2024-02-26T10:10:11;5.10;;;3.60;;
69551;SDS011;63774;45.292;11.784;2024-02-26T10:12:36;5.70;;;3.50;;
69551;SDS011;63774;45.292;11.784;2024-02-26T10:15:01;4.90;;;3.30;;
69551;SDS011;63774;45.292;11.784;2024-02-26T10:17:27;4.60;;;3.40;;
69551;SDS011;63774;45.292;11.784;2024-02-26T10:19:53;4.50;;;3.20;;
69551;SDS011;63774;45.292;11.784;2024-02-26T10:22:21;4.90;;;3.50;;
69551;SDS011;63774;45.292;11.784;2024-02-26T10:24:47;5.40;;;3.20;;
69551;SDS011;63774;45.292;11.784;2024-02-26T10:27:13;4.40;;;3.10;;
69551;SDS011;63774;45.292;11.784;2024-02-26T10:29:40;4.10;;;3.20;;
69551;SDS011;63774;45.292;11.784;2024-02-26T10:32:08;5.30;;;3.60;;
69551;SDS011;63774;45.292;11.784;2024-02-26T10:34:34;4.50;;;3.10;;
69551;SDS011;63774;45.292;11.784;2024-02-26T10:37:02;5.80;;;3.10;;
69551;SDS011;63774;45.292;11.784;2024-02-26T10:39:29;4.90;;;3.10;;
69551;SDS011;63774;45.292;11.784;2024-02-26T10:41:55;4.20;;;3.10;;
69551;SDS011;63774;45.292;11.784;2024-02-26T10:44:20;4.70;;;3.10;;
69551;SDS011;63774;45.292;11.784;2024-02-26T10:46:46;5.20;;;3.30;;
69551;SDS011;63774;45.292;11.784;2024-02-26T10:49:16;5.10;;;3.10;;
69551;SDS011;63774;45.292;11.784;2024-02-26T10:51:44;6.00;;;3.00;;
69551;SDS011;63774;45.292;11.784;2024-02-26T10:54:12;5.10;;;3.00;;
69551;SDS011;63774;45.292;11.784;2024-02-26T10:56:41;4.90;;;2.90;;
69551;SDS011;63774;45.292;11.784;2024-02-26T10:59:09;4.80;;;2.90;;
69551;SDS011;63774;45.292;11.784;2024-02-26T11:01:35;4.70;;;2.80;;
69551;SDS011;63774;45.292;11.784;2024-02-26T11:04:03;4.50;;;3.00;;
69551;SDS011;63774;45.292;11.784;2024-02-26T11:06:30;4.10;;;2.90;;
69551;SDS011;63774;45.292;11.784;2024-02-26T11:08:56;3.80;;;2.80;;
69551;SDS011;63774;45.292;11.784;2024-02-26T11:11:23;3.90;;;2.60;;
69551;SDS011;63774;45.292;11.784;2024-02-26T11:13:49;3.50;;;2.50;;
69551;SDS011;63774;45.292;11.784;2024-02-26T11:16:20;5.20;;;2.70;;
69551;SDS011;63774;45.292;11.784;2024-02-26T11:18:47;4.40;;;2.50;;
69551;SDS011;63774;45.292;11.784;2024-02-26T11:21:16;3.80;;;2.70;;
69551;SDS011;63774;45.292;11.784;2024-02-26T11:23:52;4.90;;;2.50;;
69551;SDS011;63774;45.292;11.784;2024-02-26T11:26:18;4.70;;;2.70;;
69551;SDS011;63774;45.292;11.784;2024-02-26T11:28:47;4.80;;;2.50;;
69551;SDS011;63774;45.292;11.784;2024-02-26T11:31:14;4.70;;;2.90;;
69551;SDS011;63774;45.292;11.784;2024-02-26T11:33:40;4.10;;;2.70;;
69551;SDS011;63774;45.292;11.784;2024-02-26T11:36:12;4.30;;;2.70;;
69551;SDS011;63774;45.292;11.784;2024-02-26T11:38:39;3.50;;;2.40;;
69551;SDS011;63774;45.292;11.784;2024-02-26T11:41:05;3.70;;;2.70;;
69551;SDS011;63774;45.292;11.784;2024-02-26T11:43:53;4.20;;;2.90;;
69551;SDS011;63774;45.292;11.784;2024-02-26T11:46:30;4.80;;;2.70;;
69551;SDS011;63774;45.292;11.784;2024-02-26T11:49:01;3.30;;;2.20;;
69551;SDS011;63774;45.292;11.784;2024-02-26T11:51:51;3.80;;;2.40;;
69551;SDS011;63774;45.292;11.784;2024-02-26T11:57:30;3.30;;;2.30;;
69551;SDS011;63774;45.292;11.784;2024-02-26T12:02:47;4.10;;;2.30;;
69551;SDS011;63774;45.292;11.784;2024-02-26T12:07:44;3.00;;;2.20;;
69551;SDS011;63774;45.292;11.784;2024-02-26T12:10:28;4.10;;;2.40;;
69551;SDS011;63774;45.292;11.784;2024-02-26T12:13:04;3.40;;;2.10;;
69551;SDS011;63774;45.292;11.784;2024-02-26T12:15:37;3.70;;;2.30;;
69551;SDS011;63774;45.292;11.784;2024-02-26T12:18:04;3.50;;;2.30;;
69551;SDS011;63774;45.292;11.784;2024-02-26T12:20:31;4.10;;;2.20;;
69551;SDS011;63774;45.292;11.784;2024-02-26T12:22:57;3.40;;;2.10;;
69551;SDS011;63774;45.292;11.784;2024-02-26T12:25:27;4.20;;;2.30;;
69551;SDS011;63774;45.292;11.784;2024-02-26T12:27:54;3.30;;;2.10;;
69551;SDS011;63774;45.292;11.784;2024-02-26T12:30:20;3.70;;;2.40;;
69551;SDS011;63774;45.292;11.784;2024-02-26T12:32:46;4.40;;;2.40;;
69551;SDS011;63774;45.292;11.784;2024-02-26T12:35:13;3.60;;;2.10;;
69551;SDS011;63774;45.292;11.784;2024-02-26T12:37:40;3.00;;;2.20;;
69551;SDS011;63774;45.292;11.784;2024-02-26T12:40:06;4.60;;;2.20;;
69551;SDS011;63774;45.292;11.784;2024-02-26T12:42:34;3.60;;;2.30;;
69551;SDS011;63774;45.292;11.784;2024-02-26T12:45:08;3.70;;;2.30;;
69551;SDS011;63774;45.292;11.784;2024-02-26T12:47:39;4.40;;;2.40;;
69551;SDS011;63774;45.292;11.784;2024-02-26T12:50:06;4.80;;;2.50;;
69551;SDS011;63774;45.292;11.784;2024-02-26T12:52:33;3.50;;;2.20;;
69551;SDS011;63774;45.292;11.784;2024-02-26T12:55:00;4.20;;;2.40;;
69551;SDS011;63774;45.292;11.784;2024-02-26T12:57:32;2.50;;;1.90;;
69551;SDS011;63774;45.292;11.784;2024-02-26T12:59:59;3.10;;;2.00;;
69551;SDS011;63774;45.292;11.784;2024-02-26T13:02:25;3.40;;;2.00;;
69551;SDS011;63774;45.292;11.784;2024-02-26T13:04:52;3.50;;;2.10;;
69551;SDS011;63774;45.292;11.784;2024-02-26T13:07:18;3.60;;;2.00;;
69551;SDS011;63774;45.292;11.784;2024-02-26T13:09:45;4.40;;;2.20;;
69551;SDS011;63774;45.292;11.784;2024-02-26T13:12:11;3.40;;;2.00;;
69551;SDS011;63774;45.292;11.784;2024-02-26T13:14:37;4.70;;;2.30;;
69551;SDS011;63774;45.292;11.784;2024-02-26T13:17:03;3.30;;;2.10;;
69551;SDS011;63774;45.292;11.784;2024-02-26T13:19:28;3.50;;;1.90;;
69551;SDS011;63774;45.292;11.784;2024-02-26T13:21:54;3.30;;;2.20;;
69551;SDS011;63774;45.292;11.784;2024-02-26T13:24:20;4.00;;;2.00;;
69551;SDS011;63774;45.292;11.784;2024-02-26T13:26:47;3.70;;;2.00;;
69551;SDS011;63774;45.292;11.784;2024-02-26T13:29:19;6.30;;;2.10;;
69551;SDS011;63774;45.292;11.784;2024-02-26T13:31:45;3.80;;;1.90;;
69551;SDS011;63774;45.292;11.784;2024-02-26T13:34:22;3.50;;;2.10;;
69551;SDS011;63774;45.292;11.784;2024-02-26T13:36:49;2.60;;;1.80;;
69551;SDS011;63774;45.292;11.784;2024-02-26T13:39:21;3.40;;;1.90;;
69551;SDS011;63774;45.292;11.784;2024-02-26T13:41:48;3.50;;;2.00;;
69551;SDS011;63774;45.292;11.784;2024-02-26T13:44:13;3.60;;;2.00;;
69551;SDS011;63774;45.292;11.784;2024-02-26T13:46:39;6.50;;;2.20;;
69551;SDS011;63774;45.292;11.784;2024-02-26T13:49:07;3.50;;;2.00;;
69551;SDS011;63774;45.292;11.784;2024-02-26T13:51:34;3.20;;;2.00;;
69551;SDS011;63774;45.292;11.784;2024-02-26T13:54:01;2.60;;;1.60;;
69551;SDS011;63774;45.292;11.784;2024-02-26T13:56:29;2.80;;;1.80;;
69551;SDS011;63774;45.292;11.784;2024-02-26T13:58:55;3.00;;;1.70;;
69551;SDS011;63774;45.292;11.784;2024-02-26T14:01:21;3.70;;;2.20;;
69551;SDS011;63774;45.292;11.784;2024-02-26T14:03:46;2.90;;;1.70;;
69551;SDS011;63774;45.292;11.784;2024-02-26T14:06:12;3.90;;;1.90;;
69551;SDS011;63774;45.292;11.784;2024-02-26T14:08:37;3.90;;;1.90;;
69551;SDS011;63774;45.292;11.784;2024-02-26T14:11:03;2.70;;;1.70;;
69551;SDS011;63774;45.292;11.784;2024-02-26T14:13:28;3.50;;;1.90;;
69551;SDS011;63774;45.292;11.784;2024-02-26T14:15:54;2.90;;;1.80;;
69551;SDS011;63774;45.292;11.784;2024-02-26T14:18:19;2.90;;;1.90;;
69551;SDS011;63774;45.292;11.784;2024-02-26T14:20:44;3.00;;;1.80;;
69551;SDS011;63774;45.292;11.784;2024-02-26T14:23:10;2.80;;;2.00;;
69551;SDS011;63774;45.292;11.784;2024-02-26T14:25:36;2.70;;;1.70;;
69551;SDS011;63774;45.292;11.784;2024-02-26T14:28:02;3.10;;;1.80;;
69551;SDS011;63774;45.292;11.784;2024-02-26T14:30:27;3.20;;;1.70;;
69551;SDS011;63774;45.292;11.784;2024-02-26T14:32:53;2.70;;;1.60;;
69551;SDS011;63774;45.292;11.784;2024-02-26T14:35:18;2.40;;;1.50;;
69551;SDS011;63774;45.292;11.784;2024-02-26T14:37:44;2.80;;;1.70;;